Oaklawn, Arkansas
Current Conditions -  °F | °C
As of 9:53 AM on Saturday 20 Dec 2014 (Local Time) from KHOT Reporting Station
Overcast Overcast  
Wind Chill: 42°   Ceiling: 2900
Heat Index: 42°   Visibility: 9mi
Dew Point: 37°   Wind: 3mph
Humidity: 82%   Direction: 120°ESE
Pressure: 30.28"   Gusts: NA
Location:  34.5331°N, 93.0035°W
Report Text: KHOT 201553Z AUTO 12003KT 9SM SCT023 OVC029 06/03 A3028 RMK AO2 SLP255 T00560028
Loading
Personal Weather Stations






























Interactive Weather Map New forecast layout! Learn more

10-Day Weather Forecast

Advertisements
Track Severe Weather on mobile